Time;durP1;ratioP1;P1;durP2;ratioP2;P2;SDS_P1;SDS_P2;PMS_P1;PMS_P2;Temp;Humidity;BMP_temperature;BMP_pressure;BME280_temperature;BME280_humidity;BME280_pressure;Samples;Min_cycle;Max_cycle;Signal;HPM_P1;HPM_P2
2021/07/21 00:01:44;;;;;;;5.97;3.83;;;14.70;99.90;;;;;;4965497;29;20508;-94
2021/07/21 00:04:10;;;;;;;6.60;3.95;;;14.70;99.90;;;;;;4965293;28;20042;-93
2021/07/21 00:06:36;;;;;;;6.85;3.65;;;14.70;99.90;;;;;;4949936;29;20043;-93
2021/07/21 00:09:02;;;;;;;8.52;5.03;;;14.70;99.90;;;;;;4948841;29;20247;-93
2021/07/21 00:14:21;;;;;;;7.70;4.20;;;14.60;99.90;;;;;;4933272;29;20031;-94
2021/07/21 00:17:18;;;;;;;7.65;4.60;;;14.50;99.90;;;;;;4961911;29;20086;-92
2021/07/21 00:22:21;;;;;;;7.88;4.80;;;14.40;99.90;;;;;;4933622;29;20042;-93
2021/07/21 00:24:47;;;;;;;6.97;4.72;;;14.20;99.90;;;;;;4949974;29;20031;-93
2021/07/21 00:27:13;;;;;;;6.57;4.32;;;14.20;99.90;;;;;;4948974;29;20083;-93
2021/07/21 00:29:39;;;;;;;7.20;4.80;;;14.10;99.90;;;;;;4956756;29;20066;-93
2021/07/21 00:32:04;;;;;;;7.03;4.95;;;14.00;99.90;;;;;;4964945;29;20036;-93
2021/07/21 00:34:31;;;;;;;8.65;4.80;;;13.90;99.90;;;;;;4965040;29;20027;-93
2021/07/21 00:36:57;;;;;;;6.78;4.45;;;13.90;99.90;;;;;;4948752;29;20098;-93
2021/07/21 00:39:22;;;;;;;6.90;4.72;;;13.90;99.90;;;;;;4964028;29;20056;-93
2021/07/21 00:41:50;;;;;;;8.55;5.15;;;13.80;99.90;;;;;;4964563;29;20060;-93
2021/07/21 00:44:16;;;;;;;7.65;5.05;;;13.80;99.90;;;;;;4964807;29;20024;-93
2021/07/21 00:49:16;;;;;;;8.18;5.00;;;13.70;99.90;;;;;;4926760;29;20289;-92
2021/07/21 00:51:42;;;;;;;8.23;5.47;;;13.70;99.90;;;;;;4913298;29;20270;-93
2021/07/21 00:54:08;;;;;;;8.40;5.30;;;13.70;99.90;;;;;;4913303;29;20040;-93
2021/07/21 00:56:35;;;;;;;8.43;5.25;;;13.60;99.90;;;;;;4913129;29;20108;-94
2021/07/21 00:59:03;;;;;;;8.93;5.13;;;13.60;99.90;;;;;;4912879;29;20043;-94
2021/07/21 01:01:30;;;;;;;9.77;5.50;;;13.50;99.90;;;;;;4913535;29;20043;-94
2021/07/21 01:03:55;;;;;;;8.10;4.40;;;13.50;99.90;;;;;;4913202;29;20029;-93
2021/07/21 01:06:23;;;;;;;8.05;4.00;;;13.60;99.90;;;;;;4913342;29;20040;-95
2021/07/21 01:08:50;;;;;;;7.78;3.75;;;13.60;99.90;;;;;;4912853;29;20131;-94
2021/07/21 01:11:23;;;;;;;;;;;13.70;99.90;;;;;;4914112;29;20029;-94
2021/07/21 01:14:03;;;;;;;7.18;4.22;;;13.60;99.90;;;;;;4912974;29;19933;-93
2021/07/21 01:16:34;;;;;;;6.75;3.75;;;13.60;99.90;;;;;;4932018;29;20551;-94
2021/07/21 01:19:14;;;;;;;9.63;4.22;;;13.50;99.90;;;;;;4924940;29;20125;-93
2021/07/21 01:21:59;;;;;;;;;;;13.40;99.90;;;;;;4913119;29;20039;-94
2021/07/21 01:25:00;;;;;;;7.03;4.40;;;13.40;99.90;;;;;;4912771;29;19951;-94
2021/07/21 01:27:37;;;;;;;7.22;4.35;;;13.30;99.90;;;;;;4905976;29;20067;-93
2021/07/21 01:30:17;;;;;;;5.50;4.18;;;13.40;99.90;;;;;;4927736;29;20064;-95
2021/07/21 01:33:02;;;;;;;7.18;3.97;;;13.50;99.90;;;;;;4928527;29;20040;-94
2021/07/21 01:35:34;;;;;;;7.68;4.25;;;13.50;99.90;;;;;;4928183;29;20028;-94
2021/07/21 01:38:14;;;;;;;7.03;3.88;;;13.40;99.90;;;;;;4943792;29;20337;-95
2021/07/21 01:40:48;;;;;;;6.90;4.30;;;13.30;99.90;;;;;;4912966;29;20096;-95
2021/07/21 01:43:24;;;;;;;8.02;4.45;;;13.20;99.90;;;;;;4928247;29;20036;-94
2021/07/21 01:45:52;;;;;;;9.32;4.57;;;13.30;99.90;;;;;;4927861;29;20028;-94
2021/07/21 01:48:18;;;;;;;8.15;4.65;;;13.30;99.90;;;;;;4895256;23;1106593;-95
2021/07/21 01:50:47;;;;;;;9.38;4.97;;;13.20;99.90;;;;;;4928328;29;20104;-95
2021/07/21 01:53:14;;;;;;;8.77;4.72;;;13.20;99.90;;;;;;4928535;29;20145;-94
2021/07/21 01:55:40;;;;;;;8.65;5.38;;;13.30;99.90;;;;;;4928655;29;20520;-94
2021/07/21 01:58:08;;;;;;;8.00;4.88;;;13.30;99.90;;;;;;4928886;29;20032;-95
2021/07/21 02:00:56;;;;;;;8.73;5.03;;;13.40;99.90;;;;;;4930211;29;20032;-95
2021/07/21 02:03:23;;;;;;;7.88;5.07;;;13.20;99.90;;;;;;4930363;29;20040;-95
2021/07/21 02:05:53;;;;;;;8.00;5.00;;;13.10;99.90;;;;;;4929256;29;20060;-95
2021/07/21 02:08:25;;;;;;;9.68;5.90;;;13.10;99.90;;;;;;4916343;29;20119;-96
2021/07/21 02:11:20;;;;;;;7.88;4.80;;;13.20;99.90;;;;;;4934900;29;20044;-96
2021/07/21 02:14:11;;;;;;;;;;;13.10;99.90;;;;;;4903412;29;20056;-96
2021/07/21 02:16:58;;;;;;;7.25;4.35;;;13.10;99.90;;;;;;4932424;29;19915;-96
2021/07/21 02:19:32;;;;;;;7.95;4.93;;;13.10;99.90;;;;;;4915970;29;20100;-96
2021/07/21 02:22:29;;;;;;;7.20;4.07;;;13.10;99.90;;;;;;4935533;29;20036;-96
2021/07/21 02:25:47;;;;;;;;;;;;;;;;;;;;;
2021/07/21 02:29:16;;;;;;;6.95;4.60;;;12.90;99.90;;;;;;4938014;29;20072;-96
2021/07/21 02:52:49;;;;;;;8.13;4.93;;;12.70;99.90;;;;;;4791964;30;20047;-96
2021/07/21 02:56:19;;;;;;;6.93;4.28;;;12.70;99.90;;;;;;4804228;30;20044;-96
2021/07/21 03:06:27;;;;;;;9.52;5.50;;;12.60;99.90;;;;;;5405381;23;20078;-96
2021/07/21 03:09:34;;;;;;;9.45;4.65;;;12.60;99.90;;;;;;4943544;29;20044;-96
2021/07/21 03:15:39;;;;;;;9.90;5.63;;;12.50;99.90;;;;;;4956107;29;20043;-96
2021/07/21 03:18:15;;;;;;;9.68;5.47;;;12.50;99.90;;;;;;4920691;29;20042;-95
2021/07/21 03:21:47;;;;;;;;;;;;;;;;;;;;;
2021/07/21 03:26:08;;;;;;;;;;;;;;;;;;;;;
2021/07/21 03:28:33;;;;;;;7.53;4.57;;;12.40;99.90;;;;;;4897689;29;20071;-96
2021/07/21 03:31:51;;;;;;;8.15;5.40;;;12.40;99.90;;;;;;4906423;29;20052;-96
2021/07/21 05:02:43;;;;;;;8.00;5.05;;;13.10;99.90;;;;;;5193355;23;20059;-93
2021/07/21 05:05:25;;;;;;;8.15;4.88;;;13.20;99.90;;;;;;4913396;29;20028;-91
2021/07/21 05:08:14;;;;;;;9.05;5.50;;;13.30;99.90;;;;;;4899055;29;20048;-94
2021/07/21 05:10:59;;;;;;;10.18;6.30;;;13.40;99.90;;;;;;4920493;29;20064;-92
2021/07/21 05:13:29;;;;;;;9.88;5.78;;;13.40;99.90;;;;;;4897901;29;20032;-92
2021/07/21 05:15:55;;;;;;;9.65;6.45;;;13.60;99.90;;;;;;4876274;29;20078;-94
2021/07/21 05:18:42;;;;;;;10.23;6.18;;;13.70;99.90;;;;;;4902436;29;20032;-93
2021/07/21 05:21:34;;;;;;;8.90;5.97;;;13.90;99.90;;;;;;4927488;29;20043;-93
2021/07/21 05:24:18;;;;;;;9.45;6.05;;;14.10;99.90;;;;;;4943800;29;20492;-92
2021/07/21 05:26:44;;;;;;;11.07;6.43;;;14.20;99.90;;;;;;4927597;29;20096;-92
2021/07/21 05:29:16;;;;;;;12.30;6.63;;;14.30;99.90;;;;;;4908143;29;20044;-93
2021/07/21 05:31:57;;;;;;;10.63;6.88;;;14.50;99.90;;;;;;4935236;29;20036;-94
2021/07/21 05:34:28;;;;;;;13.98;7.80;;;14.60;99.90;;;;;;4943921;29;20124;-92
2021/07/21 05:37:10;;;;;;;12.20;8.27;;;14.70;99.90;;;;;;4942043;29;20418;-92
2021/07/21 05:39:48;;;;;;;10.57;7.13;;;14.80;99.90;;;;;;4941355;29;20484;-93
2021/07/21 05:42:14;;;;;;;11.15;7.40;;;14.90;99.90;;;;;;4943468;29;20047;-91
2021/07/21 05:44:43;;;;;;;13.20;8.68;;;15.00;99.90;;;;;;4927665;29;20024;-92
2021/07/21 05:47:11;;;;;;;12.63;9.15;;;15.10;99.90;;;;;;4944499;23;20072;-92
2021/07/21 05:49:37;;;;;;;12.68;8.20;;;15.20;99.90;;;;;;4936353;29;20112;-92
2021/07/21 05:52:26;;;;;;;;;;;15.30;99.90;;;;;;4912355;29;20375;-92
2021/07/21 05:54:51;;;;;;;13.15;7.07;;;15.40;99.90;;;;;;4908900;29;19911;-92
2021/07/21 05:57:19;;;;;;;11.75;8.18;;;15.40;99.90;;;;;;4909782;29;20040;-92
2021/07/21 06:00:18;;;;;;;9.60;6.38;;;15.50;99.90;;;;;;4912092;29;20039;-93
2021/07/21 06:02:54;;;;;;;14.63;9.20;;;15.50;99.90;;;;;;4898468;29;20072;-92
2021/07/21 06:06:06;;;;;;;18.27;10.23;;;15.50;99.90;;;;;;4916052;29;20032;-93
2021/07/21 06:09:16;;;;;;;13.98;8.60;;;15.60;99.90;;;;;;4916353;29;20043;-93
2021/07/21 06:16:16;;;;;;;10.25;7.00;;;15.80;99.90;;;;;;4927783;29;20055;-93
2021/07/21 09:33:07;;;;;;;5.45;3.17;;;21.90;99.90;;;;;;4927967;29;20123;-95
2021/07/21 09:39:32;;;;;;;5.20;3.15;;;22.50;99.90;;;;;;4934447;29;20114;-96
2021/07/21 09:41:59;;;;;;;4.13;2.65;;;23.00;99.90;;;;;;4899291;29;20036;-96
2021/07/21 09:45:21;;;;;;;4.75;2.53;;;22.90;99.90;;;;;;4914750;29;20040;-96
2021/07/21 09:48:03;;;;;;;4.40;2.70;;;23.10;99.90;;;;;;4926519;23;20075;-96
2021/07/21 09:50:35;;;;;;;3.92;2.22;;;22.70;99.90;;;;;;4862632;29;20036;-96
2021/07/21 09:53:05;;;;;;;4.78;2.45;;;22.50;99.90;;;;;;4877593;29;20466;-96
2021/07/21 09:55:35;;;;;;;4.22;2.60;;;22.70;99.90;;;;;;4878484;29;20157;-96
2021/07/21 09:58:13;;;;;;;4.30;2.83;;;22.40;99.90;;;;;;4894462;29;20511;-96
2021/07/21 10:01:07;;;;;;;4.00;1.70;;;22.70;99.90;;;;;;4863767;29;20044;-96
2021/07/21 10:03:40;;;;;;;4.57;1.73;;;23.00;99.90;;;;;;4880718;29;20070;-96
2021/07/21 10:06:39;;;;;;;2.70;1.42;;;23.40;99.90;;;;;;4866699;29;20019;-96
2021/07/21 10:09:36;;;;;;;3.63;1.75;;;24.40;99.90;;;;;;4862416;29;20083;-96
2021/07/21 10:12:46;;;;;;;4.97;2.28;;;24.10;99.90;;;;;;4865495;29;20021;-96
2021/07/21 10:15:25;;;;;;;2.90;1.27;;;23.90;99.90;;;;;;4859267;29;20041;-96
2021/07/21 10:18:28;;;;;;;3.03;1.38;;;24.30;99.90;;;;;;4867843;29;20497;-96
2021/07/21 10:21:36;;;;;;;3.50;1.67;;;24.60;99.90;;;;;;4870288;29;20044;-96
2021/07/21 10:24:38;;;;;;;2.67;1.20;;;24.50;99.90;;;;;;5007748;23;20260;-96
2021/07/21 10:27:06;;;;;;;2.85;1.17;;;24.60;99.90;;;;;;4912573;29;20063;-96
2021/07/21 10:29:49;;;;;;;3.33;1.30;;;24.50;99.90;;;;;;4900422;29;20092;-96
2021/07/21 10:32:19;;;;;;;2.95;1.30;;;25.20;99.90;;;;;;4902875;29;20036;-96
2021/07/21 10:34:46;;;;;;;2.92;1.67;;;25.20;99.90;;;;;;4905590;29;20038;-96
2021/07/21 10:37:15;;;;;;;2.33;1.08;;;24.50;99.90;;;;;;4901103;29;20047;-96
2021/07/21 10:39:43;;;;;;;3.30;1.30;;;24.10;99.90;;;;;;4904577;29;20111;-96
2021/07/21 10:42:17;;;;;;;3.08;1.02;;;24.50;99.90;;;;;;4903187;29;20032;-96
2021/07/21 10:44:56;;;;;;;2.58;1.35;;;24.40;99.90;;;;;;4918621;29;20032;-96
2021/07/21 10:47:24;;;;;;;3.10;1.52;;;24.30;99.90;;;;;;4900458;29;20046;-96
2021/07/21 10:49:55;;;;;;;3.90;1.40;;;24.30;99.90;;;;;;4901209;29;20036;-96
2021/07/21 10:55:14;;;;;;;3.08;1.33;;;24.40;99.90;;;;;;4916057;29;20032;-96
2021/07/21 11:00:28;;;;;;;6.72;2.55;;;23.30;99.90;;;;;;4916262;29;20119;-96
2021/07/21 11:03:17;;;;;;;3.90;1.98;;;22.90;99.90;;;;;;4900084;29;20489;-96
2021/07/21 11:05:44;;;;;;;4.15;1.90;;;23.10;99.90;;;;;;4916013;29;20040;-96
2021/07/21 11:08:17;;;;;;;2.20;1.00;;;23.80;99.90;;;;;;4900865;29;20043;-96
2021/07/21 11:10:45;;;;;;;2.75;1.25;;;24.20;99.90;;;;;;4899954;29;20032;-96
2021/07/21 11:13:33;;;;;;;4.18;1.88;;;24.30;99.90;;;;;;4902173;29;20039;-96
2021/07/21 11:16:01;;;;;;;3.55;1.67;;;23.60;99.90;;;;;;4902114;29;20481;-95
2021/07/21 11:18:27;;;;;;;3.63;1.60;;;24.20;99.90;;;;;;4899713;29;20127;-95
2021/07/21 11:21:03;;;;;;;4.78;2.58;;;24.30;99.90;;;;;;4900097;29;20039;-95
2021/07/21 11:23:53;;;;;;;4.47;1.88;;;24.30;99.90;;;;;;4901851;29;20096;-94
2021/07/21 11:26:32;;;;;;;4.75;2.40;;;24.50;99.90;;;;;;4899294;29;20064;-95
2021/07/21 11:29:18;;;;;;;4.65;1.95;;;24.60;99.90;;;;;;4899740;29;20055;-95
2021/07/21 11:31:50;;;;;;;4.57;2.65;;;24.70;99.90;;;;;;4899014;29;20040;-96
2021/07/21 11:34:26;;;;;;;5.85;2.75;;;25.00;99.90;;;;;;4899589;29;20047;-95
2021/07/21 11:36:59;;;;;;;5.95;3.35;;;24.80;99.90;;;;;;4899404;29;20043;-95
2021/07/21 11:39:52;;;;;;;5.60;2.80;;;24.20;99.90;;;;;;4915192;29;20028;-96
2021/07/21 11:42:30;;;;;;;4.28;2.25;;;23.90;99.90;;;;;;4901618;29;20064;-96
2021/07/21 11:45:02;;;;;;;5.20;2.65;;;23.70;99.90;;;;;;4899393;29;20128;-96
2021/07/21 11:47:36;;;;;;;5.45;2.80;;;23.40;99.90;;;;;;4899021;29;20051;-96
2021/07/21 11:50:09;;;;;;;7.82;3.80;;;23.50;99.90;;;;;;4899046;29;20032;-95
2021/07/21 11:52:36;;;;;;;5.00;2.72;;;23.80;99.90;;;;;;4899022;29;20036;-95
2021/07/21 11:55:02;;;;;;;4.82;2.88;;;23.80;99.90;;;;;;4915199;29;20081;-96
2021/07/21 11:57:28;;;;;;;3.30;1.95;;;24.10;99.90;;;;;;4914964;29;20054;-93
2021/07/21 11:59:55;;;;;;;5.25;3.03;;;24.80;99.90;;;;;;4914293;29;20080;-93
2021/07/21 12:02:24;;;;;;;4.68;2.83;;;24.70;99.90;;;;;;4914121;29;20032;-95
2021/07/21 12:04:55;;;;;;;6.57;3.75;;;24.20;99.90;;;;;;4914209;29;20036;-94
2021/07/21 12:07:23;;;;;;;5.30;2.50;;;23.90;99.90;;;;;;4913913;29;20066;-94
2021/07/21 12:09:51;;;;;;;4.22;2.40;;;24.00;99.90;;;;;;4898613;29;20437;-95
2021/07/21 12:12:19;;;;;;;3.85;2.30;;;24.10;99.90;;;;;;4898403;29;20036;-95
2021/07/21 12:14:56;;;;;;;4.03;2.50;;;24.20;99.90;;;;;;4914588;29;20044;-95
2021/07/21 12:17:26;;;;;;;4.68;2.28;;;24.20;99.90;;;;;;4901168;29;20078;-95
2021/07/21 12:19:55;;;;;;;2.80;1.48;;;24.40;99.90;;;;;;4917243;29;20059;-95
2021/07/21 12:22:22;;;;;;;5.18;2.25;;;24.70;99.90;;;;;;4934243;29;20051;-96
2021/07/21 12:24:51;;;;;;;4.13;2.17;;;24.70;99.90;;;;;;4917183;29;20035;-95
2021/07/21 12:28:04;;;;;;;3.10;2.00;;;24.50;99.90;;;;;;4918549;29;20095;-95
2021/07/21 12:30:57;;;;;;;3.45;1.05;;;24.40;99.90;;;;;;4909389;29;20043;-95
2021/07/21 12:33:34;;;;;;;3.22;1.13;;;24.60;99.90;;;;;;4919059;29;20091;-95
2021/07/21 12:36:07;;;;;;;3.30;1.88;;;24.60;99.90;;;;;;4932662;29;20036;-95
2021/07/21 12:38:38;;;;;;;2.88;1.60;;;24.70;99.90;;;;;;4916983;29;20485;-96
2021/07/21 12:41:04;;;;;;;4.57;1.65;;;25.00;99.90;;;;;;4916823;29;20028;-95
2021/07/21 12:43:30;;;;;;;3.50;1.08;;;24.80;99.90;;;;;;4917737;29;20457;-92
2021/07/21 12:46:36;;;;;;;2.70;1.48;;;25.50;99.90;;;;;;4918668;29;20040;-94
2021/07/21 12:49:04;;;;;;;3.90;1.63;;;25.80;99.90;;;;;;4836344;29;20046;-95
2021/07/21 12:51:30;;;;;;;3.72;1.80;;;25.60;99.90;;;;;;4835660;29;20054;-93
2021/07/21 12:53:59;;;;;;;3.55;1.52;;;26.00;99.90;;;;;;4818422;29;20043;-96
2021/07/21 12:56:25;;;;;;;3.63;2.13;;;26.10;99.90;;;;;;4817180;29;20038;-94
2021/07/21 12:59:09;;;;;;;3.15;1.92;;;25.80;99.90;;;;;;4817131;29;20053;-92
2021/07/21 13:01:35;;;;;;;3.63;1.45;;;25.50;99.90;;;;;;4816828;29;20122;-93
2021/07/21 13:04:00;;;;;;;4.78;2.78;;;25.40;99.90;;;;;;4816839;29;20083;-94
2021/07/21 13:06:27;;;;;;;7.30;2.63;;;24.60;99.90;;;;;;4816604;29;20046;-94
2021/07/21 13:08:53;;;;;;;4.50;1.90;;;24.30;99.90;;;;;;4816963;29;20082;-94
2021/07/21 13:11:20;;;;;;;3.80;1.90;;;24.20;99.90;;;;;;4816666;29;20035;-94
2021/07/21 13:13:59;;;;;;;4.60;2.25;;;24.60;99.90;;;;;;4816939;29;20042;-96
2021/07/21 13:16:35;;;;;;;2.80;1.58;;;24.70;99.90;;;;;;4831651;29;20034;-96
2021/07/21 13:19:02;;;;;;;2.28;1.17;;;25.00;99.90;;;;;;4836141;29;20099;-96
2021/07/21 13:21:45;;;;;;;3.33;1.85;;;25.80;99.90;;;;;;4823999;29;20060;-96
2021/07/21 13:24:23;;;;;;;3.20;1.80;;;25.70;99.90;;;;;;4807241;29;20101;-96
2021/07/21 13:27:04;;;;;;;3.42;1.33;;;25.70;99.90;;;;;;4915414;29;20052;-96
2021/07/21 13:29:35;;;;;;;3.63;1.50;;;25.30;99.90;;;;;;4897560;29;20036;-95
2021/07/21 13:32:03;;;;;;;3.88;2.40;;;25.40;99.90;;;;;;4897333;29;20052;-95
2021/07/21 13:34:31;;;;;;;3.50;1.60;;;24.80;99.90;;;;;;4912958;29;20040;-95
2021/07/21 13:36:59;;;;;;;3.85;2.67;;;24.80;99.90;;;;;;4897554;29;20036;-96
2021/07/21 13:39:26;;;;;;;5.07;2.38;;;24.70;99.90;;;;;;4897201;29;20024;-94
2021/07/21 13:41:59;;;;;;;3.63;2.58;;;25.10;99.90;;;;;;4897123;29;20036;-93
2021/07/21 13:44:27;;;;;;;4.53;3.03;;;25.10;99.90;;;;;;4897602;29;20024;-94
2021/07/21 13:46:54;;;;;;;3.67;2.22;;;24.70;99.90;;;;;;4897276;29;20037;-93
2021/07/21 13:49:35;;;;;;;5.15;3.17;;;24.70;99.90;;;;;;4896910;29;20067;-96
2021/07/21 13:52:06;;;;;;;4.90;2.72;;;24.80;99.90;;;;;;4896757;29;20127;-94
2021/07/21 13:54:36;;;;;;;4.60;1.98;;;24.70;99.90;;;;;;4896744;29;20107;-95
2021/07/21 13:57:06;;;;;;;4.75;2.00;;;24.50;99.90;;;;;;4896808;29;20401;-95
2021/07/21 13:59:33;;;;;;;5.72;2.55;;;24.90;99.90;;;;;;4896620;29;20032;-94
2021/07/21 14:02:00;;;;;;;2.83;1.30;;;25.10;99.90;;;;;;4896710;29;20036;-95
2021/07/21 14:04:26;;;;;;;4.88;2.85;;;25.30;99.90;;;;;;4896626;29;20095;-93
2021/07/21 14:06:52;;;;;;;4.53;2.75;;;25.00;99.90;;;;;;4896410;29;20107;-93
2021/07/21 14:09:19;;;;;;;4.43;2.13;;;24.80;99.90;;;;;;4896610;29;20047;-94
2021/07/21 14:11:49;;;;;;;3.08;2.13;;;25.50;99.90;;;;;;4897287;29;20473;-95
2021/07/21 14:14:15;;;;;;;3.90;2.47;;;25.50;99.90;;;;;;4897048;29;20040;-94
2021/07/21 14:16:44;;;;;;;3.75;1.75;;;25.50;99.90;;;;;;4911208;29;20059;-95
2021/07/21 14:19:12;;;;;;;3.75;2.08;;;25.50;99.90;;;;;;4915295;29;20056;-94
2021/07/21 14:21:38;;;;;;;3.95;1.88;;;25.40;99.90;;;;;;4915187;29;20044;-94
2021/07/21 14:24:06;;;;;;;3.45;1.75;;;25.20;99.90;;;;;;4915224;29;20122;-95
2021/07/21 14:26:32;;;;;;;4.10;2.63;;;25.30;99.90;;;;;;4930574;29;20056;-95
2021/07/21 14:28:59;;;;;;;3.85;2.47;;;25.00;99.90;;;;;;4915291;29;20027;-95
2021/07/21 14:31:25;;;;;;;3.67;2.40;;;25.20;99.90;;;;;;4914825;29;20032;-94
2021/07/21 14:33:51;;;;;;;3.42;1.60;;;25.20;99.90;;;;;;4931017;29;20044;-94
2021/07/21 14:36:18;;;;;;;3.58;2.15;;;25.50;99.90;;;;;;4915207;29;20038;-96
2021/07/21 14:38:44;;;;;;;3.03;2.00;;;25.50;99.90;;;;;;4930834;29;20043;-94
2021/07/21 14:41:10;;;;;;;3.85;2.63;;;25.40;99.90;;;;;;4915430;29;20087;-96
2021/07/21 14:43:36;;;;;;;3.55;2.55;;;25.00;99.90;;;;;;4915139;29;20032;-95
2021/07/21 14:46:22;;;;;;;3.60;1.88;;;24.80;99.90;;;;;;4930556;29;20035;-95
2021/07/21 14:48:49;;;;;;;4.18;2.35;;;25.10;99.90;;;;;;4896723;23;20131;-95
2021/07/21 14:51:15;;;;;;;3.50;1.90;;;24.90;99.90;;;;;;4876901;29;20507;-94
2021/07/21 14:53:41;;;;;;;3.75;2.42;;;24.60;99.90;;;;;;4909562;29;20036;-93
2021/07/21 14:56:07;;;;;;;4.68;3.13;;;24.50;99.90;;;;;;4882362;29;20044;-96
2021/07/21 14:58:32;;;;;;;5.55;1.95;;;24.50;99.90;;;;;;4892613;29;20029;-95
2021/07/21 15:00:58;;;;;;;3.97;1.88;;;24.60;99.90;;;;;;4893079;29;20404;-94
2021/07/21 15:03:24;;;;;;;4.45;2.22;;;24.70;99.90;;;;;;4893203;29;20127;-94
2021/07/21 15:05:51;;;;;;;2.92;1.77;;;24.80;99.90;;;;;;4893058;29;20033;-95
2021/07/21 15:08:17;;;;;;;2.90;1.73;;;24.60;99.90;;;;;;4892843;29;20064;-95
2021/07/21 15:10:44;;;;;;;3.55;1.52;;;24.70;99.90;;;;;;4893193;29;20140;-95
2021/07/21 15:13:10;;;;;;;3.10;2.00;;;24.70;99.90;;;;;;4893217;29;20037;-94
2021/07/21 15:15:36;;;;;;;3.15;1.85;;;24.60;99.90;;;;;;4899836;29;20072;-95
2021/07/21 15:18:02;;;;;;;3.45;1.85;;;24.50;99.90;;;;;;4899820;29;20035;-93
2021/07/21 15:20:28;;;;;;;3.83;2.03;;;24.50;99.90;;;;;;4899506;29;20052;-94
2021/07/21 15:22:54;;;;;;;4.45;2.50;;;24.50;99.90;;;;;;4899634;29;20036;-93
2021/07/21 15:25:20;;;;;;;5.70;2.58;;;24.40;99.90;;;;;;4899564;29;20038;-94
2021/07/21 15:27:47;;;;;;;3.47;1.73;;;24.50;99.90;;;;;;4899126;29;20052;-95
2021/07/21 15:30:14;;;;;;;3.47;2.42;;;24.40;99.90;;;;;;4865156;29;20109;-94
2021/07/21 15:32:40;;;;;;;5.07;2.08;;;24.20;99.90;;;;;;4877305;29;20037;-94
2021/07/21 15:35:09;;;;;;;3.35;1.75;;;24.30;99.90;;;;;;4893161;29;20029;-94
2021/07/21 15:37:35;;;;;;;4.35;1.88;;;24.40;99.90;;;;;;4892691;29;20048;-95
2021/07/21 15:40:01;;;;;;;3.45;1.65;;;24.60;99.90;;;;;;4877422;29;20033;-94
2021/07/21 15:42:27;;;;;;;3.33;2.15;;;24.70;99.90;;;;;;4877303;29;20061;-93
2021/07/21 15:44:53;;;;;;;5.15;2.65;;;24.60;99.90;;;;;;4892423;29;20037;-94
2021/07/21 15:47:19;;;;;;;3.90;2.50;;;24.50;99.90;;;;;;4892217;29;20068;-94
2021/07/21 15:49:44;;;;;;;4.43;2.20;;;24.50;99.90;;;;;;4876953;29;20033;-93
2021/07/21 15:52:11;;;;;;;4.03;2.22;;;24.40;99.90;;;;;;4881298;29;20032;-94
2021/07/21 15:54:37;;;;;;;4.55;2.70;;;24.50;99.90;;;;;;4879438;29;20036;-95
2021/07/21 15:57:05;;;;;;;3.90;2.70;;;24.30;99.90;;;;;;4879924;29;20021;-94
2021/07/21 15:59:31;;;;;;;3.90;2.10;;;24.00;99.90;;;;;;4879841;29;20041;-94
2021/07/21 16:01:57;;;;;;;3.92;2.08;;;24.10;99.90;;;;;;4879507;29;20029;-96
2021/07/21 16:04:23;;;;;;;2.95;1.52;;;24.10;99.90;;;;;;4894466;29;20033;-96
2021/07/21 16:06:50;;;;;;;3.30;2.17;;;24.10;99.90;;;;;;4871014;29;20039;-96
2021/07/21 16:09:23;;;;;;;3.55;2.13;;;24.10;99.90;;;;;;4904534;29;20039;-94
2021/07/21 16:11:49;;;;;;;3.30;2.33;;;23.90;99.90;;;;;;4898284;29;20036;-94
2021/07/21 16:14:16;;;;;;;4.05;2.72;;;24.00;99.90;;;;;;4897837;29;20032;-93
2021/07/21 16:16:44;;;;;;;3.72;2.90;;;23.80;99.90;;;;;;4898222;29;20032;-94
2021/07/21 16:19:17;;;;;;;6.10;2.70;;;23.90;99.90;;;;;;4894684;29;20474;-93
2021/07/21 16:21:44;;;;;;;4.10;2.65;;;23.80;99.90;;;;;;4894292;29;20036;-84
2021/07/21 16:24:13;;;;;;;4.35;2.38;;;23.90;99.90;;;;;;4897016;29;20063;-86
2021/07/21 16:26:50;;;;;;;6.57;3.08;;;23.80;99.90;;;;;;4897303;29;20040;-86
2021/07/21 16:29:17;;;;;;;5.55;3.20;;;23.70;99.90;;;;;;4896039;29;20044;-86
2021/07/21 16:31:44;;;;;;;5.32;3.05;;;23.80;99.90;;;;;;4897307;29;20194;-86
2021/07/21 16:34:10;;;;;;;3.70;2.20;;;23.70;99.90;;;;;;4897775;29;20028;-86
2021/07/21 16:36:36;;;;;;;3.90;2.28;;;23.80;99.90;;;;;;4897710;29;20434;-87
2021/07/21 16:39:04;;;;;;;4.50;2.35;;;23.80;99.90;;;;;;4883756;29;20053;-86
2021/07/21 16:41:29;;;;;;;6.07;3.75;;;23.80;99.90;;;;;;4911811;29;20039;-87
2021/07/21 16:43:55;;;;;;;3.47;2.15;;;23.80;99.90;;;;;;4881512;29;20037;-86
2021/07/21 16:46:21;;;;;;;4.90;2.58;;;23.90;99.90;;;;;;4875310;29;20128;-87
2021/07/21 16:48:46;;;;;;;4.32;3.05;;;23.90;99.90;;;;;;4878237;29;20049;-87
2021/07/21 16:51:12;;;;;;;3.88;2.50;;;24.00;99.90;;;;;;4879183;29;20100;-87
2021/07/21 16:53:37;;;;;;;4.32;2.33;;;24.40;99.90;;;;;;4910361;29;20036;-87
2021/07/21 16:56:04;;;;;;;4.05;2.22;;;24.70;99.90;;;;;;4913464;29;20035;-87
2021/07/21 16:58:30;;;;;;;3.30;1.38;;;24.70;99.90;;;;;;4913325;29;20032;-87
2021/07/21 17:00:56;;;;;;;5.53;3.13;;;24.70;99.90;;;;;;4897617;29;20126;-88
2021/07/21 17:03:22;;;;;;;5.10;2.78;;;24.60;99.90;;;;;;4913191;29;20103;-87
2021/07/21 17:05:48;;;;;;;3.75;2.38;;;24.40;99.90;;;;;;4913234;29;20036;-87
2021/07/21 17:08:14;;;;;;;4.97;2.75;;;24.10;99.90;;;;;;4897221;29;20036;-87
2021/07/21 17:10:40;;;;;;;3.47;2.15;;;24.00;99.90;;;;;;4913270;29;20043;-88
2021/07/21 17:13:06;;;;;;;4.10;2.80;;;24.00;99.90;;;;;;4897647;29;20071;-87
2021/07/21 17:15:31;;;;;;;4.38;2.58;;;23.90;99.90;;;;;;4897287;29;20036;-88
2021/07/21 17:17:57;;;;;;;5.25;2.55;;;23.90;99.90;;;;;;4897631;29;20095;-87
2021/07/21 17:20:26;;;;;;;4.53;2.22;;;23.90;99.90;;;;;;4897120;29;20560;-88
2021/07/21 17:22:52;;;;;;;3.80;2.05;;;23.90;99.90;;;;;;4897333;29;20035;-87
2021/07/21 17:25:18;;;;;;;5.00;2.10;;;23.80;99.90;;;;;;4897164;29;20040;-87
2021/07/21 17:27:43;;;;;;;3.80;2.22;;;23.90;99.90;;;;;;4897248;29;20060;-87
2021/07/21 17:30:11;;;;;;;3.10;1.90;;;23.90;99.90;;;;;;4912800;29;20043;-87
2021/07/21 17:32:38;;;;;;;5.65;2.75;;;23.80;99.90;;;;;;4896865;29;20540;-87
2021/07/21 17:35:06;;;;;;;3.53;2.60;;;23.80;99.90;;;;;;4912569;29;20057;-87
2021/07/21 17:37:33;;;;;;;3.90;2.20;;;23.70;99.90;;;;;;4897077;29;20036;-87
2021/07/21 17:39:59;;;;;;;5.30;2.17;;;23.70;99.90;;;;;;4896714;29;20032;-87
2021/07/21 17:42:24;;;;;;;4.05;2.60;;;23.70;99.90;;;;;;4896887;29;20129;-87
2021/07/21 17:44:51;;;;;;;3.95;2.05;;;23.60;99.90;;;;;;4897028;29;20043;-87
2021/07/21 17:47:16;;;;;;;4.47;2.05;;;23.60;99.90;;;;;;4911897;29;20052;-87
2021/07/21 17:49:44;;;;;;;4.60;3.20;;;23.60;99.90;;;;;;4897001;29;20046;-87
2021/07/21 17:52:09;;;;;;;4.22;1.95;;;23.50;99.90;;;;;;4896528;29;20027;-87
2021/07/21 17:54:35;;;;;;;4.18;2.25;;;23.50;99.90;;;;;;4896430;29;20396;-87
2021/07/21 17:57:01;;;;;;;4.50;2.72;;;23.60;99.90;;;;;;4896459;29;20032;-88
2021/07/21 17:59:27;;;;;;;3.95;2.35;;;23.50;99.90;;;;;;4896902;29;20044;-87
2021/07/21 18:01:53;;;;;;;3.83;2.33;;;23.40;99.90;;;;;;4896980;29;20457;-87
2021/07/21 18:04:18;;;;;;;3.75;2.20;;;23.40;99.90;;;;;;4912172;29;20035;-87
2021/07/21 18:06:44;;;;;;;3.58;2.10;;;23.40;99.90;;;;;;4912135;29;20127;-87
2021/07/21 18:09:13;;;;;;;4.43;1.95;;;23.40;99.90;;;;;;4911895;29;20063;-88
2021/07/21 18:11:38;;;;;;;3.67;2.08;;;23.30;99.90;;;;;;4896385;29;20032;-87
2021/07/21 18:14:04;;;;;;;4.28;2.10;;;23.30;99.90;;;;;;4896790;29;20469;-87
2021/07/21 18:16:30;;;;;;;3.47;2.00;;;23.30;99.90;;;;;;4896292;29;20091;-88
2021/07/21 18:18:55;;;;;;;3.53;2.15;;;23.20;99.90;;;;;;4896360;29;20048;-87
2021/07/21 18:21:21;;;;;;;4.00;2.30;;;23.30;99.90;;;;;;4928966;29;20032;-87
2021/07/21 18:23:47;;;;;;;3.60;1.70;;;23.20;99.90;;;;;;4896633;29;20107;-88
2021/07/21 18:26:13;;;;;;;3.33;2.20;;;23.20;99.90;;;;;;4896317;29;20058;-88
2021/07/21 18:28:38;;;;;;;3.75;2.40;;;23.20;99.90;;;;;;4896078;29;20044;-88
2021/07/21 18:31:05;;;;;;;3.17;1.83;;;23.20;99.90;;;;;;4896183;29;20028;-88
2021/07/21 18:33:32;;;;;;;4.32;1.98;;;23.10;99.90;;;;;;4911962;29;20040;-87
2021/07/21 18:35:58;;;;;;;3.75;2.10;;;23.10;99.90;;;;;;4928918;29;20032;-87
2021/07/21 18:38:24;;;;;;;3.85;2.00;;;23.10;99.90;;;;;;4896164;29;20043;-88
2021/07/21 18:40:51;;;;;;;5.40;2.13;;;23.10;99.90;;;;;;4928445;29;20028;-88
2021/07/21 18:43:18;;;;;;;4.65;2.15;;;23.10;99.90;;;;;;4896213;29;20103;-88
2021/07/21 18:45:44;;;;;;;5.75;2.83;;;23.10;99.90;;;;;;4896054;29;20036;-88
2021/07/21 18:48:10;;;;;;;4.35;2.30;;;23.00;99.90;;;;;;4896065;29;20408;-88
2021/07/21 18:50:36;;;;;;;5.30;2.25;;;22.90;99.90;;;;;;4912073;29;20032;-88
2021/07/21 18:53:01;;;;;;;4.57;2.40;;;22.90;99.90;;;;;;4888782;29;20100;-88
2021/07/21 18:55:27;;;;;;;3.92;2.10;;;22.80;99.90;;;;;;4881269;29;20033;-88
2021/07/21 18:57:52;;;;;;;4.30;2.15;;;22.80;99.90;;;;;;4881378;29;20136;-88